Thornhurst, Pennsylvania
Current Conditions -  °F | °C
As of 12:54 AM on Monday 26 Jan 2015 (Local Time) from KAVP Reporting Station
Overcast Overcast  
Wind Chill:   Ceiling: 5500
Heat Index: 20°   Visibility: 10mi
Dew Point:   Wind: 12mph
Humidity: 57%   Direction: 30°NNE
Pressure: 29.95"   Gusts: NA
Location:  41.243°N, 75.5491°W
Report Text: KAVP 260554Z AUTO 03010KT 10SM OVC055 M07/M14 A2995 RMK AO2 SLP150 T10671139 11028 21067 58001
Loading
Personal Weather Stations






























Interactive Weather Map New forecast layout! Learn more

10-Day Weather Forecast

Advertisements
Track Severe Weather on mobile